Time;durP1;ratioP1;P1;durP2;ratioP2;P2;SDS_P1;SDS_P2;PMS_P1;PMS_P2;Temp;Humidity;BMP_temperature;BMP_pressure;BME280_temperature;BME280_humidity;BME280_pressure;Samples;Min_cycle;Max_cycle;Signal;HPM_P1;HPM_P2
2022/10/05 00:01:47;;;;;;;3.92;2.10;;;;;;;11.01;74.37;101488.38;5027744;28;20084;-77
2022/10/05 00:04:21;;;;;;;5.03;2.33;;;;;;;10.86;77.88;101463.63;5009374;28;20025;-76
2022/10/05 00:06:59;;;;;;;6.15;3.28;;;;;;;10.49;78.17;101412.31;5014489;28;20046;-73
2022/10/05 00:09:29;;;;;;;6.15;2.33;;;;;;;10.75;79.75;101467.84;5021780;28;20045;-74
2022/10/05 00:11:55;;;;;;;5.18;2.60;;;;;;;10.85;80.88;101498.63;5026209;28;20048;-74
2022/10/05 00:14:33;;;;;;;5.25;2.47;;;;;;;10.73;81.05;101498.44;5009866;28;20041;-76
2022/10/05 00:17:00;;;;;;;4.20;2.33;;;;;;;9.75;80.82;101355.91;4990061;28;20050;-73
2022/10/05 00:19:36;;;;;;;5.15;2.00;;;;;;;9.77;81.65;101376.91;5003745;28;20041;-73
2022/10/05 00:22:29;;;;;;;4.35;2.30;;;;;;;10.55;80.74;101510.38;4989757;28;20092;-73
2022/10/05 00:24:59;;;;;;;5.05;2.55;;;;;;;9.75;82.47;101376.88;4988440;28;20053;-72
2022/10/05 00:27:30;;;;;;;5.25;3.00;;;;;;;9.83;83.85;101393.63;4988153;28;20046;-72
2022/10/05 00:29:58;;;;;;;8.27;2.88;;;;;;;10.51;83.17;101505.03;5005387;28;20061;-73
2022/10/05 00:32:24;;;;;;;8.63;2.50;;;;;;;9.77;83.10;101387.41;5007210;28;20150;-73
2022/10/05 00:34:50;;;;;;;5.47;2.08;;;;;;;9.93;83.69;101441.88;4996235;28;20119;-73
2022/10/05 00:37:15;;;;;;;4.55;2.22;;;;;;;10.24;82.36;101494.91;5007742;28;20034;-72
2022/10/05 00:39:41;;;;;;;4.13;2.28;;;;;;;9.89;80.61;101411.22;5004035;28;20466;-73
2022/10/05 00:42:24;;;;;;;6.85;2.55;;;;;;;10.46;84.30;101525.94;4990314;28;20046;-72
2022/10/05 00:45:28;;;;;;;4.35;2.03;;;;;;;10.36;83.86;101518.78;4986492;28;20050;-72
2022/10/05 00:47:54;;;;;;;7.30;2.70;;;;;;;10.31;84.59;101518.69;4970199;28;20045;-71
2022/10/05 00:50:47;;;;;;;9.70;2.30;;;;;;;10.33;84.17;101516.09;5002853;28;20053;-74
2022/10/05 00:53:23;;;;;;;5.50;2.92;;;;;;;10.26;85.07;101529.94;4996994;28;20253;-72
2022/10/05 00:56:14;;;;;;;5.10;2.30;;;;;;;9.47;84.66;101384.19;4991958;28;20113;-72
2022/10/05 00:59:07;;;;;;;4.22;2.45;;;;;;;10.04;85.52;101507.63;4992437;28;20085;-72
2022/10/05 01:02:04;;;;;;;5.32;3.20;;;;;;;10.09;84.13;101514.75;4999752;28;20042;-72
2022/10/05 01:04:48;;;;;;;4.50;2.67;;;;;;;9.29;84.11;101358.53;4961200;28;20121;-72
2022/10/05 01:07:19;;;;;;;;;;;;;;;9.96;84.19;101506.59;5005491;28;20042;-72
2022/10/05 01:09:48;;;;;;;6.10;2.70;;;;;;;10.15;84.62;101517.47;5006303;28;19918;-73
2022/10/05 01:12:37;;;;;;;5.22;2.92;;;;;;;9.55;81.88;101430.63;5004386;28;20109;-72
2022/10/05 01:15:30;;;;;;;3.90;2.60;;;;;;;9.58;83.09;101436.81;5011423;28;20054;-72
2022/10/05 01:18:20;;;;;;;6.18;3.83;;;;;;;10.04;85.10;101520.72;5026597;28;20045;-71
2022/10/05 01:21:25;;;;;;;7.60;3.95;;;;;;;10.32;82.36;101540.56;5016986;28;20042;-74
2022/10/05 01:24:20;;;;;;;6.95;3.75;;;;;;;10.15;85.65;101538.44;4991724;28;20129;-73
2022/10/05 01:27:13;;;;;;;6.57;3.45;;;;;;;10.12;85.73;101550.63;5024919;28;20072;-73
2022/10/05 01:30:05;;;;;;;7.28;3.30;;;;;;;10.02;88.32;101536.47;5026283;28;20097;-73
2022/10/05 01:32:36;;;;;;;6.32;3.53;;;;;;;9.98;87.23;101518.88;5016665;28;20037;-74
2022/10/05 01:35:29;;;;;;;9.10;4.78;;;;;;;9.40;86.64;101454.75;5019401;28;20061;-72
2022/10/05 01:38:04;;;;;;;9.80;5.22;;;;;;;10.10;86.24;101561.06;5015734;28;20029;-72
2022/10/05 01:40:43;;;;;;;8.10;4.78;;;;;;;9.20;86.54;101430.75;5027447;28;20117;-72
2022/10/05 01:43:14;;;;;;;9.55;5.13;;;;;;;9.96;87.15;101569.53;5026425;28;20041;-73
2022/10/05 01:45:55;;;;;;;9.63;5.60;;;;;;;9.82;87.14;101580.59;5026597;28;20109;-73
2022/10/05 01:48:45;;;;;;;8.65;4.60;;;;;;;9.80;87.71;101573.53;5024435;28;20049;-72
2022/10/05 01:51:16;;;;;;;8.82;4.70;;;;;;;9.21;86.74;101491.03;5008556;28;20053;-72
2022/10/05 01:54:06;;;;;;;13.10;4.97;;;;;;;9.09;86.28;101502.09;5026676;28;20037;-74
2022/10/05 01:57:04;;;;;;;12.15;5.85;;;;;;;9.76;86.09;101597.91;5026638;28;20041;-74
2022/10/05 02:00:00;;;;;;;8.30;6.15;;;;;;;9.69;84.86;101595.19;5013270;28;20054;-74
2022/10/05 02:02:30;;;;;;;13.52;6.22;;;;;;;9.81;84.70;101607.66;5027687;28;20037;-74
2022/10/05 02:05:27;;;;;;;12.18;6.85;;;;;;;9.74;83.69;101605.75;5027225;28;20084;-73
2022/10/05 02:07:56;;;;;;;13.45;6.50;;;;;;;9.69;85.15;101608.28;5026424;28;20037;-74
2022/10/05 02:10:30;;;;;;;10.63;7.05;;;;;;;9.70;85.55;101594.31;5024565;28;20116;-73
2022/10/05 02:13:02;;;;;;;10.63;6.35;;;;;;;9.57;84.43;101604.47;5024650;28;20037;-72
2022/10/05 02:15:44;;;;;;;15.57;7.07;;;;;;;9.40;84.63;101615.44;5023515;28;20053;-72
2022/10/05 02:18:16;;;;;;;13.02;6.55;;;;;;;9.23;85.96;101588.84;5026241;28;20038;-71
2022/10/05 02:20:43;;;;;;;10.70;6.80;;;;;;;9.41;85.62;101617.22;5025277;28;20045;-73
2022/10/05 02:23:18;;;;;;;11.95;7.70;;;;;;;8.61;87.70;101486.06;5025898;28;20033;-72
2022/10/05 02:25:46;;;;;;;15.27;7.68;;;;;;;9.37;85.79;101612.75;5024513;28;20033;-72
2022/10/05 02:28:11;;;;;;;12.88;6.97;;;;;;;9.57;85.81;101642.03;5024407;28;20469;-71
2022/10/05 02:30:44;;;;;;;13.43;6.80;;;;;;;9.43;86.18;101612.00;5021362;28;20104;-72
2022/10/05 02:33:18;;;;;;;12.70;6.85;;;;;;;8.88;85.49;101519.91;5024410;28;20143;-71
2022/10/05 02:35:43;;;;;;;17.13;6.93;;;;;;;8.07;86.13;101397.47;4994411;28;20485;-72
2022/10/05 02:38:25;;;;;;;11.32;6.43;;;;;;;9.43;87.33;101625.09;5023891;28;20044;-72
2022/10/05 02:41:12;;;;;;;11.57;7.38;;;;;;;9.53;88.87;101637.59;5025954;28;20034;-71
2022/10/05 02:43:38;;;;;;;16.27;8.27;;;;;;;9.38;90.10;101635.47;5016727;28;20021;-72
2022/10/05 02:46:06;;;;;;;13.65;6.85;;;;;;;9.27;91.08;101635.22;5029296;28;20037;-72
2022/10/05 02:48:52;;;;;;;11.77;7.28;;;;;;;9.23;91.96;101637.72;5029466;28;20037;-72
2022/10/05 02:51:33;;;;;;;19.20;7.75;;;;;;;9.11;91.98;101614.72;5028892;28;20034;-73
2022/10/05 02:54:40;;;;;;;20.95;10.27;;;;;;;9.26;92.23;101651.75;5029122;28;20140;-73
2022/10/05 02:57:15;;;;;;;11.32;7.18;;;;;;;8.99;93.02;101662.44;4968586;28;20133;-73
2022/10/05 02:59:51;;;;;;;10.85;7.38;;;;;;;8.92;93.50;101660.50;4967449;28;20050;-72
2022/10/05 03:02:19;;;;;;;9.35;6.47;;;;;;;9.06;92.32;101668.69;4996671;28;20050;-72
2022/10/05 03:05:22;;;;;;;13.95;8.20;;;;;;;9.13;91.60;101665.41;5029010;28;20034;-72
2022/10/05 03:08:01;;;;;;;14.88;7.03;;;;;;;8.40;89.73;101531.75;5029060;28;20080;-72
2022/10/05 03:10:32;;;;;;;12.20;6.82;;;;;;;9.12;90.28;101665.34;5026666;28;20064;-72
2022/10/05 03:13:07;;;;;;;17.27;7.65;;;;;;;8.92;88.98;101650.03;5024264;28;20136;-72
2022/10/05 03:15:42;;;;;;;12.48;6.35;;;;;;;9.22;87.82;101678.72;5028312;28;20057;-73
2022/10/05 03:18:42;;;;;;;9.35;7.05;;;;;;;8.40;87.83;101536.09;5025799;28;20044;-73
2022/10/05 03:21:41;;;;;;;15.43;8.25;;;;;;;9.22;86.61;101707.53;5021483;28;20056;-72
2022/10/05 03:24:15;;;;;;;13.05;7.40;;;;;;;9.27;87.82;101689.31;5026055;28;20049;-72
2022/10/05 03:27:18;;;;;;;16.05;8.10;;;;;;;9.18;87.26;101689.09;5006411;28;20049;-72
2022/10/05 03:29:56;;;;;;;21.00;8.85;;;;;;;9.29;86.68;101701.63;5010735;28;20151;-72
2022/10/05 03:32:32;;;;;;;12.80;8.30;;;;;;;9.37;86.46;101714.03;5026136;28;20060;-71
2022/10/05 03:35:45;;;;;;;15.60;7.68;;;;;;;8.85;87.09;101598.34;5028082;28;20520;-71
2022/10/05 03:38:40;;;;;;;11.75;8.20;;;;;;;9.26;86.95;101698.03;5019465;28;20100;-71
2022/10/05 03:41:11;;;;;;;11.10;7.00;;;;;;;8.47;87.45;101572.03;5026230;28;20748;-73
2022/10/05 03:44:01;;;;;;;13.50;7.90;;;;;;;9.06;88.25;101710.56;5018676;28;20403;-73
2022/10/05 03:46:53;;;;;;;13.45;7.72;;;;;;;8.99;88.51;101711.25;5022156;28;20053;-71
2022/10/05 03:49:46;;;;;;;9.25;6.50;;;;;;;8.99;87.32;101720.03;5011712;28;20042;-71
2022/10/05 03:52:23;;;;;;;10.73;7.27;;;;;;;8.41;86.49;101592.81;5014369;28;20045;-71
2022/10/05 03:54:54;;;;;;;12.57;7.85;;;;;;;9.00;87.91;101695.59;5015316;28;20073;-72
2022/10/05 03:57:27;;;;;;;11.75;7.47;;;;;;;9.00;88.06;101716.53;5019185;28;20073;-71
2022/10/05 03:59:59;;;;;;;12.45;7.03;;;;;;;8.40;88.31;101601.47;5020078;28;20089;-73
2022/10/05 04:02:33;;;;;;;13.18;7.85;;;;;;;8.13;89.55;101568.44;5027556;28;20049;-71
2022/10/05 04:05:14;;;;;;;10.88;7.18;;;;;;;8.06;89.67;101590.03;5008364;28;20051;-72
2022/10/05 04:07:58;;;;;;;11.15;7.57;;;;;;;8.18;90.52;101584.28;5017474;28;20037;-72
2022/10/05 04:10:34;;;;;;;15.43;8.40;;;;;;;8.85;91.63;101719.63;5022408;28;20045;-72
2022/10/05 04:13:14;;;;;;;19.08;8.93;;;;;;;8.29;91.94;101611.63;5024562;28;20049;-72
2022/10/05 04:15:49;;;;;;;10.57;6.90;;;;;;;8.90;90.78;101724.09;5028273;28;20120;-72
2022/10/05 04:18:25;;;;;;;12.45;7.75;;;;;;;8.23;90.63;101614.94;5022363;28;20053;-72
2022/10/05 04:20:57;;;;;;;19.05;9.30;;;;;;;8.07;90.09;101576.09;5022134;28;20046;-73
2022/10/05 04:24:00;;;;;;;13.90;7.63;;;;;;;8.99;90.09;101745.28;5005399;28;20128;-72
2022/10/05 04:26:59;;;;;;;14.32;8.30;;;;;;;9.00;92.47;101758.44;5026436;28;20128;-72
2022/10/05 04:29:40;;;;;;;13.02;7.53;;;;;;;9.03;91.24;101771.59;5022892;28;20049;-73
2022/10/05 04:32:15;;;;;;;11.73;7.78;;;;;;;9.00;89.81;101765.41;5026405;28;20038;-73
2022/10/05 04:35:13;;;;;;;8.68;5.80;;;;;;;9.04;90.14;101764.66;5023472;28;20061;-72
2022/10/05 04:38:00;;;;;;;11.57;7.90;;;;;;;8.98;89.85;101782.78;5026043;28;20485;-73
2022/10/05 04:40:32;;;;;;;16.38;7.95;;;;;;;9.02;90.16;101787.28;5007202;28;20037;-73
2022/10/05 04:43:26;;;;;;;11.40;6.85;;;;;;;8.46;90.09;101685.34;5023712;28;20060;-74
2022/10/05 04:46:36;;;;;;;17.50;7.22;;;;;;;9.21;90.79;101791.31;5015185;28;20509;-73
2022/10/05 04:49:35;;;;;;;13.65;6.75;;;;;;;9.17;90.11;101789.44;5025787;28;20116;-72
2022/10/05 04:52:23;;;;;;;14.57;8.27;;;;;;;8.58;91.16;101663.91;5001404;28;20152;-72
2022/10/05 04:55:01;;;;;;;13.63;8.52;;;;;;;9.29;91.81;101782.81;5025982;28;20053;-73
2022/10/05 04:57:54;;;;;;;13.35;7.72;;;;;;;9.29;91.62;101787.16;5015083;28;20486;-73
2022/10/05 05:00:45;;;;;;;14.38;8.18;;;;;;;8.59;92.77;101671.81;5029330;28;20068;-73
2022/10/05 05:03:20;;;;;;;12.45;8.40;;;;;;;8.62;93.36;101674.50;5021874;28;20172;-72
2022/10/05 05:06:11;;;;;;;12.85;7.78;;;;;;;9.00;93.78;101741.84;5023188;28;20129;-73
2022/10/05 05:09:05;;;;;;;13.13;7.63;;;;;;;9.22;92.68;101804.41;5021009;28;20116;-72
2022/10/05 05:11:41;;;;;;;11.02;7.63;;;;;;;8.49;91.69;101669.75;5015851;28;20045;-72
2022/10/05 05:14:39;;;;;;;8.50;6.43;;;;;;;9.18;91.35;101786.88;5022835;28;20450;-73
2022/10/05 05:17:34;;;;;;;11.20;6.90;;;;;;;9.45;90.85;101807.69;5023874;28;20041;-75
2022/10/05 05:20:30;;;;;;;12.90;8.27;;;;;;;9.49;90.63;101799.06;5020198;28;20389;-73
2022/10/05 05:23:29;;;;;;;10.23;6.43;;;;;;;9.55;89.28;101797.44;5020792;28;20022;-72
2022/10/05 05:26:03;;;;;;;10.50;6.30;;;;;;;9.63;89.26;101804.66;5027854;28;20052;-73
2022/10/05 05:28:45;;;;;;;21.15;8.43;;;;;;;9.71;88.45;101810.97;5028454;28;20098;-74
2022/10/05 05:31:27;;;;;;;13.30;7.25;;;;;;;9.69;88.15;101810.09;5023467;28;20033;-73
2022/10/05 05:34:02;;;;;;;11.10;7.28;;;;;;;9.76;89.01;101811.09;5018620;28;20100;-73
2022/10/05 05:36:50;;;;;;;14.00;7.43;;;;;;;9.88;88.54;101806.19;5015506;28;20104;-73
2022/10/05 05:39:23;;;;;;;23.52;10.82;;;;;;;9.02;88.38;101657.25;5024926;28;20054;-73
2022/10/05 05:41:48;;;;;;;19.95;9.25;;;;;;;9.97;86.74;101817.75;5022589;28;20083;-72
2022/10/05 05:44:14;;;;;;;11.70;7.22;;;;;;;10.13;86.63;101825.16;5025273;28;20130;-76
2022/10/05 05:46:52;;;;;;;21.08;7.25;;;;;;;9.35;88.34;101676.44;5015676;28;20041;-74
2022/10/05 05:49:34;;;;;;;14.45;8.15;;;;;;;10.24;88.89;101821.06;5022202;28;20033;-76
2022/10/05 05:52:05;;;;;;;10.40;6.63;;;;;;;10.15;89.19;101802.47;5023246;28;20045;-75
2022/10/05 05:54:39;;;;;;;13.85;6.85;;;;;;;10.31;89.04;101825.63;5024640;28;20132;-76
2022/10/05 05:57:32;;;;;;;11.70;5.88;;;;;;;10.60;87.22;101851.66;5018453;28;20069;-75
2022/10/05 06:00:05;;;;;;;17.75;6.43;;;;;;;10.74;88.10;101850.22;5010289;28;20128;-76
2022/10/05 06:02:40;;;;;;;9.73;6.63;;;;;;;10.21;83.88;101720.41;5025214;28;20041;-76
2022/10/05 06:05:20;;;;;;;12.48;6.88;;;;;;;11.15;81.45;101865.16;5018762;28;20051;-76
2022/10/05 06:07:46;;;;;;;16.30;7.82;;;;;;;11.29;81.46;101870.69;5021552;28;20803;-74
2022/10/05 06:10:33;;;;;;;18.60;6.57;;;;;;;11.47;80.40;101867.53;5020332;28;20037;-74
2022/10/05 06:13:05;;;;;;;9.93;5.25;;;;;;;11.50;79.53;101872.88;5011879;28;20058;-74
2022/10/05 06:15:42;;;;;;;9.90;5.35;;;;;;;11.61;76.92;101874.84;5013307;28;20045;-73
2022/10/05 06:18:12;;;;;;;9.27;4.85;;;;;;;11.64;78.24;101879.28;5012723;28;20311;-73
2022/10/05 06:21:00;;;;;;;13.38;6.30;;;;;;;11.69;79.17;101874.09;5021088;28;20761;-74
2022/10/05 06:23:41;;;;;;;9.07;5.63;;;;;;;11.85;76.80;101881.41;5009055;28;20132;-77
2022/10/05 06:26:47;;;;;;;12.00;5.05;;;;;;;12.03;76.10;101873.91;5027266;28;20129;-75
2022/10/05 06:29:20;;;;;;;10.00;5.88;;;;;;;11.25;76.01;101734.84;4964438;28;20061;-73
2022/10/05 06:32:34;;;;;;;12.65;5.15;;;;;;;12.13;77.00;101879.31;5027262;28;20059;-74
2022/10/05 06:35:13;;;;;;;12.02;6.05;;;;;;;12.41;74.98;101883.31;5009550;28;20080;-74
2022/10/05 06:37:41;;;;;;;22.33;6.57;;;;;;;12.47;74.77;101896.53;5006167;28;20029;-75
2022/10/05 06:40:28;;;;;;;13.57;7.15;;;;;;;12.53;74.11;101875.59;5008710;28;20049;-73
2022/10/05 06:43:22;;;;;;;17.45;6.85;;;;;;;12.02;74.15;101777.41;5020095;28;20053;-74
2022/10/05 06:45:58;;;;;;;18.88;6.22;;;;;;;12.72;73.15;101879.38;5007021;28;20076;-76
2022/10/05 06:48:26;;;;;;;19.70;7.53;;;;;;;12.83;72.89;101885.69;5017565;28;20067;-74
2022/10/05 06:50:59;;;;;;;9.63;5.13;;;;;;;12.92;68.93;101858.56;5023165;28;20049;-74
2022/10/05 06:53:46;;;;;;;24.75;6.82;;;;;;;12.54;69.85;101772.03;5024219;28;20034;-75
2022/10/05 06:56:12;;;;;;;9.07;5.75;;;;;;;13.21;69.74;101887.09;5027730;28;20037;-76
2022/10/05 06:58:55;;;;;;;14.48;6.72;;;;;;;12.66;68.74;101752.88;5009088;28;20481;-75
2022/10/05 07:01:43;;;;;;;;;;;;;;;13.46;68.67;101885.66;5015622;28;20053;-74
2022/10/05 07:04:34;;;;;;;19.40;9.80;;;;;;;13.57;66.98;101893.69;5026632;28;20335;-74
2022/10/05 07:07:08;;;;;;;21.70;6.93;;;;;;;13.66;66.19;101892.03;5006408;28;20049;-73
2022/10/05 07:09:40;;;;;;;24.13;6.07;;;;;;;13.73;65.78;101891.25;5027995;28;20504;-74
2022/10/05 07:12:14;;;;;;;18.40;4.75;;;;;;;13.80;65.25;101907.16;5020736;28;20076;-75
2022/10/05 07:14:57;;;;;;;15.35;4.47;;;;;;;13.84;65.26;101899.28;5027231;28;20117;-73
2022/10/05 07:17:25;;;;;;;16.30;3.95;;;;;;;14.09;64.22;101902.16;5028143;28;20474;-75
2022/10/05 07:20:21;;;;;;;10.75;2.90;;;;;;;13.99;62.06;101906.47;5020388;28;20032;-73
2022/10/05 07:23:05;;;;;;;21.20;4.07;;;;;;;14.23;61.83;101907.56;5019053;28;20026;-74
2022/10/05 07:26:03;;;;;;;12.48;2.78;;;;;;;14.26;61.92;101907.63;5027955;28;20026;-73
2022/10/05 07:28:47;;;;;;;13.07;3.13;;;;;;;14.27;61.41;101902.31;4989053;28;20741;-74
2022/10/05 07:31:20;;;;;;;9.73;2.83;;;;;;;14.34;61.98;101893.59;5016024;28;20129;-74
2022/10/05 07:34:07;;;;;;;7.93;1.90;;;;;;;14.41;60.55;101915.66;5026740;28;21654;-75
2022/10/05 07:40:09;;;;;;;8.95;3.15;;;;;;;14.75;60.55;101902.75;4983700;28;20056;-73
2022/10/05 07:42:43;;;;;;;7.18;2.35;;;;;;;14.84;59.46;101908.06;5001169;28;20490;-75
2022/10/05 07:45:27;;;;;;;11.45;3.13;;;;;;;14.79;59.27;101907.16;5018833;28;20050;-75
2022/10/05 07:48:00;;;;;;;7.90;2.75;;;;;;;14.26;58.87;101805.53;5008948;28;20041;-75
2022/10/05 07:50:39;;;;;;;11.45;3.15;;;;;;;14.94;59.13;101899.34;5020042;28;20107;-74
2022/10/05 07:53:21;;;;;;;25.30;4.82;;;;;;;14.44;59.03;101788.91;5017896;28;20053;-73
2022/10/05 07:55:53;;;;;;;24.23;4.80;;;;;;;15.12;58.61;101906.47;5022673;28;20034;-75
2022/10/05 07:58:36;;;;;;;8.90;2.13;;;;;;;15.02;57.92;101872.06;5022105;28;20113;-74
2022/10/05 08:01:23;;;;;;;;;;;;;;;15.17;58.06;101919.72;5026835;28;20481;-73
2022/10/05 08:03:57;;;;;;;7.07;2.60;;;;;;;15.09;58.82;101930.25;5013609;28;19975;-74
2022/10/05 08:06:37;;;;;;;6.05;2.90;;;;;;;14.97;59.33;101927.53;5027438;28;20037;-74
2022/10/05 08:09:21;;;;;;;4.47;1.27;;;;;;;15.01;59.32;101910.84;5024407;28;20045;-73
2022/10/05 08:11:52;;;;;;;8.02;2.42;;;;;;;15.16;59.55;101920.59;5017533;28;20107;-72
2022/10/05 08:14:24;;;;;;;22.98;3.20;;;;;;;15.31;58.25;101925.06;5008555;28;20121;-74
2022/10/05 08:16:54;;;;;;;11.60;2.40;;;;;;;15.51;58.03;101933.13;5023108;28;20159;-74
2022/10/05 08:19:24;;;;;;;9.85;2.38;;;;;;;15.49;57.55;101926.94;5018192;28;20132;-73
2022/10/05 08:21:57;;;;;;;17.88;4.65;;;;;;;15.33;57.55;101907.44;5024538;28;20505;-73
2022/10/05 08:24:40;;;;;;;12.95;3.10;;;;;;;15.63;57.94;101941.09;5026454;28;20041;-73
2022/10/05 08:27:32;;;;;;;6.47;2.90;;;;;;;14.66;58.11;101802.28;4992277;28;20454;-74
2022/10/05 08:30:04;;;;;;;15.40;1.98;;;;;;;14.76;57.56;101827.88;5020984;28;20140;-74
2022/10/05 08:32:52;;;;;;;7.90;2.58;;;;;;;15.23;57.44;101895.97;5026691;28;20045;-74
2022/10/05 08:35:38;;;;;;;2.97;1.70;;;;;;;15.31;56.76;101865.16;5020262;28;20038;-74
2022/10/05 08:38:30;;;;;;;2.67;1.80;;;;;;;15.50;56.74;101926.03;5021861;28;20535;-74
2022/10/05 08:41:11;;;;;;;3.88;1.98;;;;;;;15.76;57.56;101944.72;5013550;28;20030;-73
2022/10/05 08:44:13;;;;;;;6.20;2.17;;;;;;;15.95;55.77;101943.88;4999290;28;20046;-75
2022/10/05 08:46:39;;;;;;;5.68;2.13;;;;;;;15.85;55.64;101951.78;5021935;28;20042;-72
2022/10/05 08:49:41;;;;;;;2.47;1.45;;;;;;;15.61;55.64;101946.38;5021946;28;20022;-73
2022/10/05 08:52:28;;;;;;;6.78;2.22;;;;;;;15.58;55.44;101904.03;5025617;28;20061;-74
2022/10/05 08:55:08;;;;;;;11.60;2.60;;;;;;;15.91;54.81;101947.38;5026107;28;20097;-74
2022/10/05 08:58:15;;;;;;;3.63;2.10;;;;;;;15.73;55.33;101950.88;5025227;28;20129;-73
2022/10/05 09:01:15;;;;;;;17.08;1.77;;;;;;;15.93;54.37;101948.28;4943868;28;20074;-73
2022/10/05 09:04:18;;;;;;;5.95;1.85;;;;;;;15.72;55.73;101948.22;4942113;28;20067;-74
2022/10/05 09:07:08;;;;;;;10.52;2.08;;;;;;;15.92;54.92;101950.91;5000857;28;20137;-74
2022/10/05 09:09:36;;;;;;;5.10;2.17;;;;;;;16.27;53.77;101950.09;5014575;28;20641;-74
2022/10/05 09:12:28;;;;;;;3.25;1.40;;;;;;;16.21;54.15;101951.88;5015822;28;20056;-74
2022/10/05 09:15:19;;;;;;;12.73;1.90;;;;;;;16.28;54.97;101949.25;5022762;28;20048;-76
2022/10/05 09:18:34;;;;;;;10.52;1.83;;;;;;;14.93;55.01;101746.88;5004711;28;20049;-78
2022/10/05 09:21:35;;;;;;;4.55;1.55;;;;;;;15.83;54.50;101950.03;4994500;28;20073;-77
2022/10/05 09:24:25;;;;;;;8.27;1.75;;;;;;;15.80;56.06;101949.13;4984777;28;20174;-74
2022/10/05 09:27:09;;;;;;;5.57;1.88;;;;;;;15.90;56.85;101929.75;5001713;28;20057;-75
2022/10/05 09:30:12;;;;;;;4.78;1.27;;;;;;;15.85;55.52;101914.72;4993925;28;20160;-75
2022/10/05 09:33:24;;;;;;;4.88;2.80;;;;;;;16.23;55.14;101906.84;5001795;28;20118;-74
2022/10/05 09:36:33;;;;;;;3.95;2.10;;;;;;;16.59;55.06;101950.13;4972832;28;20456;-74
2022/10/05 09:39:17;;;;;;;3.85;1.73;;;;;;;16.34;53.66;101893.59;5002436;28;20126;-74
2022/10/05 09:42:27;;;;;;;6.00;1.85;;;;;;;16.59;54.29;101951.00;4984654;28;20054;-74
2022/10/05 09:45:14;;;;;;;7.32;2.15;;;;;;;16.28;53.42;101947.47;4979804;28;20045;-74
2022/10/05 09:48:08;;;;;;;5.00;1.88;;;;;;;16.59;53.68;101950.13;5004627;28;20081;-77
2022/10/05 09:50:37;;;;;;;10.82;2.75;;;;;;;16.46;54.07;101949.25;5002173;28;20058;-75
2022/10/05 09:53:20;;;;;;;7.32;2.17;;;;;;;16.21;53.99;101946.56;4997307;28;20074;-76
2022/10/05 09:56:07;;;;;;;;;;;;;;;16.36;54.27;101945.69;5006291;28;20042;-75
2022/10/05 09:58:52;;;;;;;2.60;1.48;;;;;;;16.67;52.50;101936.00;5004246;28;20415;-74
2022/10/05 10:01:39;;;;;;;4.13;1.75;;;;;;;16.86;53.07;101941.31;5008919;28;20045;-74
2022/10/05 10:04:11;;;;;;;4.28;2.00;;;;;;;16.92;52.67;101930.69;4993971;28;20054;-76
2022/10/05 10:07:04;;;;;;;3.13;1.85;;;;;;;17.01;51.68;101946.56;4976714;28;20399;-76
2022/10/05 10:09:42;;;;;;;6.20;3.10;;;;;;;16.82;50.49;101887.41;4987638;28;20508;-78
2022/10/05 10:12:34;;;;;;;3.65;1.15;;;;;;;16.78;49.83;101913.88;5004699;28;20799;-77
2022/10/05 10:15:37;;;;;;;12.40;1.55;;;;;;;16.76;50.76;101927.13;5006272;28;20045;-76
2022/10/05 10:18:26;;;;;;;9.90;2.28;;;;;;;16.80;50.60;101913.03;4988882;28;20046;-74
2022/10/05 10:21:03;;;;;;;6.93;2.15;;;;;;;16.27;52.33;101815.88;5002777;28;20050;-75
2022/10/05 10:24:06;;;;;;;4.43;2.33;;;;;;;16.88;52.01;101913.03;5003987;28;20046;-75
2022/10/05 10:26:57;;;;;;;5.90;2.88;;;;;;;16.75;51.73;101893.56;4991695;28;20078;-75
2022/10/05 10:29:31;;;;;;;4.78;2.33;;;;;;;16.94;52.09;101914.78;4999263;28;20046;-76
2022/10/05 10:32:35;;;;;;;9.82;2.60;;;;;;;16.28;52.77;101817.66;5008831;28;20040;-76
2022/10/05 10:35:18;;;;;;;3.65;1.27;;;;;;;16.61;50.21;101913.91;5000556;28;20050;-75
2022/10/05 10:38:15;;;;;;;3.13;1.90;;;;;;;16.07;51.27;101788.56;5005496;28;20025;-77
2022/10/05 10:41:18;;;;;;;5.53;2.40;;;;;;;16.23;51.26;101800.91;4999184;28;20030;-75
2022/10/05 10:44:12;;;;;;;4.22;1.60;;;;;;;16.19;51.98;101778.81;5005476;28;20033;-84
2022/10/05 10:46:44;;;;;;;6.82;3.03;;;;;;;16.88;51.75;101879.44;5010078;28;20049;-82
2022/10/05 10:49:27;;;;;;;10.70;2.13;;;;;;;16.89;51.99;101890.91;5007763;28;20329;-86
2022/10/05 10:52:11;;;;;;;;;;;;;;;16.85;52.23;101874.13;4999705;28;20042;-89
2022/10/05 10:54:52;;;;;;;;;;;;;;;16.84;51.50;101869.72;4988466;28;20127;-75
2022/10/05 10:58:08;;;;;;;3.53;1.52;;;;;;;16.84;51.84;101888.28;5025239;28;19976;-73
2022/10/05 11:00:43;;;;;;;2.47;1.20;;;;;;;16.44;52.16;101813.25;4964500;28;20054;-82
2022/10/05 11:03:42;;;;;;;6.55;2.17;;;;;;;16.53;50.56;101881.22;4967110;28;20858;-79
2022/10/05 11:06:34;;;;;;;3.97;1.70;;;;;;;16.21;50.75;101847.69;4994176;28;20069;-76
2022/10/05 11:09:11;;;;;;;3.35;2.13;;;;;;;16.65;50.94;101874.16;4998460;28;20053;-77
2022/10/05 11:11:49;;;;;;;6.05;2.35;;;;;;;16.77;52.75;101877.66;4996184;28;20077;-80
2022/10/05 11:14:36;;;;;;;18.00;2.72;;;;;;;16.67;51.83;101884.75;5006746;28;20050;-78
2022/10/05 11:17:28;;;;;;;5.55;2.28;;;;;;;16.09;51.48;101753.25;5015397;28;20092;-80
2022/10/05 11:20:08;;;;;;;8.73;3.05;;;;;;;17.40;51.10;101882.81;5024285;28;20124;-81
2022/10/05 11:23:04;;;;;;;6.20;2.17;;;;;;;15.18;53.03;101528.41;5024703;28;20118;-80
2022/10/05 11:25:52;;;;;;;4.55;1.75;;;;;;;17.60;49.75;101875.59;5020452;28;20053;-74
2022/10/05 11:28:26;;;;;;;4.88;2.53;;;;;;;17.55;48.84;101888.00;4979192;28;20076;-75
2022/10/05 11:30:54;;;;;;;4.63;2.83;;;;;;;17.85;50.12;101883.47;5029801;28;20053;-74
2022/10/05 11:34:05;;;;;;;17.90;2.53;;;;;;;17.75;49.71;101864.03;5006323;28;20050;-78
2022/10/05 11:36:53;;;;;;;6.55;1.90;;;;;;;17.22;49.47;101878.44;5013106;28;20049;-80
2022/10/05 11:39:21;;;;;;;7.78;1.48;;;;;;;17.33;48.98;101884.59;5014378;28;20587;-77
2022/10/05 11:42:22;;;;;;;4.32;2.30;;;;;;;17.37;49.76;101875.75;5006262;28;20133;-77
2022/10/05 11:45:10;;;;;;;9.65;2.13;;;;;;;17.30;49.85;101866.91;4968846;28;20117;-77
2022/10/05 11:48:19;;;;;;;5.07;2.08;;;;;;;17.56;49.00;101865.00;5013380;28;20049;-75
2022/10/05 11:50:55;;;;;;;5.05;1.30;;;;;;;17.34;49.28;101840.38;5019371;28;20053;-77
2022/10/05 11:53:28;;;;;;;4.30;1.92;;;;;;;17.49;48.77;101845.59;5019929;28;20050;-76
2022/10/05 11:56:12;;;;;;;3.47;2.13;;;;;;;17.27;48.59;101843.03;5025895;28;20120;-77
2022/10/05 11:58:50;;;;;;;8.90;1.73;;;;;;;17.12;49.24;101828.97;5000931;28;20464;-76
2022/10/05 12:01:56;;;;;;;4.43;2.00;;;;;;;17.06;49.96;101835.16;5020962;28;20045;-77
2022/10/05 12:04:32;;;;;;;5.90;1.55;;;;;;;16.97;49.76;101820.16;5003608;28;20516;-76
2022/10/05 12:07:10;;;;;;;3.67;1.83;;;;;;;17.20;49.01;101787.38;5022815;28;20045;-75
2022/10/05 12:10:12;;;;;;;4.65;2.05;;;;;;;17.40;50.53;101825.28;5024327;28;20060;-75
2022/10/05 12:12:50;;;;;;;4.18;2.17;;;;;;;17.36;49.80;101797.00;5021392;28;20410;-75
2022/10/05 12:15:16;;;;;;;7.63;2.67;;;;;;;17.55;48.05;101823.44;5026865;28;20497;-76
2022/10/05 12:17:51;;;;;;;4.35;1.85;;;;;;;16.87;49.13;101713.28;5005756;28;20049;-76
2022/10/05 12:20:35;;;;;;;4.25;1.98;;;;;;;17.69;48.35;101837.50;5007102;28;20140;-74
2022/10/05 12:23:16;;;;;;;6.78;1.90;;;;;;;17.72;48.79;101829.50;5003221;28;20069;-75
2022/10/05 12:25:47;;;;;;;3.92;2.50;;;;;;;17.15;48.72;101741.44;5021336;28;20044;-76
2022/10/05 12:28:19;;;;;;;7.07;2.75;;;;;;;17.61;48.46;101828.72;5026930;28;20057;-75
2022/10/05 12:31:15;;;;;;;3.60;2.07;;;;;;;17.80;46.47;101833.00;5014549;28;20093;-74
2022/10/05 12:34:24;;;;;;;5.18;2.22;;;;;;;17.52;47.04;101830.53;5018556;28;20038;-77
2022/10/05 12:37:01;;;;;;;5.25;1.65;;;;;;;17.75;48.53;101839.22;5005808;28;20104;-76
2022/10/05 12:39:53;;;;;;;4.13;2.28;;;;;;;17.89;47.77;101819.69;5000792;28;20097;-74
2022/10/05 12:42:31;;;;;;;7.78;2.78;;;;;;;17.38;46.54;101715.63;5011248;28;20038;-75
2022/10/05 12:45:29;;;;;;;11.20;2.95;;;;;;;17.67;49.96;101808.28;5011733;28;20049;-76